Ana Sayfa
METAR-TAF:

METAR-TAF

Havaalanları :

Caracas, Venezuela

Enlem: 10-36N, Boylam: 066-59W, yükseklik: 43 m

Güncel hava durumu gözlemi

Rapor saat 22:00 UTC de 36 dakika önce yapıldı.
Rüzgar doğudan 5 kt
Sıcaklık 26°C
Nem 84%
Basınç 1012 hPa
Görüş mesafesi 10 km veya daha fazla
1600 ft yükseklikte parçalı çok bulutlu

METAR: SVMI 202200Z 09005KT 9999 BKN016 26/23 Q1012

Saat: 18:36 (22:36 UTC)

Tahmin

Rapor saat 16:00 UTC de 6 saat ve 36 dakika önce yapıldı.
Ayın 20'si saat 18 UTC'den ayın 21'si saat 18 UTC'ye kadar geçerli Tahmin
Rüzgar doğudan 13 kt
Görüş mesafesi 10 km veya daha fazla
1600 ft yükseklikte parçalı çok bulutlu
Dönüşüyor
ayın 20'si saat 18 UTC'den ayın 20'si saat 23 UTC'ye kadar
Rüzgar doğudan 10 kt
1600 ft yükseklikte parçalı bulutlu

TAF: SVMI 201600Z 2018/2118 09013KT 9999 BKN016 TX31/18Z TN24/09Z BECMG 2018/2023 09010KT SCT016

4.000'den fazla havaalanı için hava durumu gözlemleri ve tahminleri (METAR ve TAF raporları).

Kullanılabilir istasyonlar harita üzerinde sarı ve kırmızı noktalarla gösterilir.

İstasyonun adını görmek için fareyi noktanın üzerinde gezdirin.

Sonrasında hava gözlem ve tahminlerini görmek için tıklayın.

Haritayı değiştirmek için: yaklaştırmak için siyah artı işaretli yeşil düğmeye ve uzaklaştırmak için de eksi işaretli düğmeye hızla tıklayın; bitişik haritalar için yeşil okları kullanın.


METAR-TAF: